PWSweather.com
Personal Weather Stations
Station Observations
KTXPLANO70
Kemper Estates, Plano, TX

Kemper EstatesPlano, TX

Lat: 33.0674, Lon: -96.7659

Elevation: 737

Station Type: Davis Vantage Pro2

http://www.dallasdawg.com

Latest ConditionsUpdated 9:20:01 AM CDT Monday, Sep 24, 2018
Currently Today's Max Today's Min Today's Average
Temperature 72.1°F22.3°C 72.1°F22.3°C 69.6°F20.9°C 70.0°F21.1°C
Dew Point 71.5°F21.9°C 71.5°F21.9°C 69.3°F20.7°C 69.7°F20.9°C
Winds Calm Calm 1.2 mph -1.9 kmh - - 0.0 mph 0.0 kmh
Wind Gusts -- 3.5 mph5.6 kmh - -
Humidity 98% 99% 98% 99%
Pressure 29.91 in1012.9 mb 29.91 in1012.9 mb 29.88 in1011.9 mb -
Precipitation - 0.01 in0.3 mm - -
Hour Temp Dew Point Humidity Winds Wind Gusts Pressure Precip Precip Rate Daily Precip Total
09:20 AM 72.1°F22.3°C 71.5°F21.9°C 98% Calm Calm -- 29.91 in1012.9 mb - 0.00 in0.0 mm 0.01 in0.3 mm
09:15 AM 71.9°F22.2°C 71.3°F21.8°C 98% Calm Calm -- 29.91 in1012.9 mb - 0.00 in0.0 mm 0.01 in0.3 mm
09:10 AM 71.6°F22.0°C 71.3°F21.8°C 99% Calm Calm -- 29.91 in1012.9 mb - 0.00 in0.0 mm 0.01 in0.3 mm
09:00 AM 71.1°F21.7°C 70.8°F21.6°C 99% 1.2 mph SSW1.9 kmh SSW 2.3 mph3.7 kmh 29.91 in1012.9 mb - 0.00 in0.0 mm 0.01 in0.3 mm
08:55 AM 71.0°F21.7°C 70.7°F21.5°C 99% Calm Calm -- 29.91 in1012.9 mb - 0.00 in0.0 mm 0.01 in0.3 mm
08:50 AM 71.0°F21.7°C 70.7°F21.5°C 99% Calm Calm -- 29.91 in1012.9 mb - 0.00 in0.0 mm 0.01 in0.3 mm
08:45 AM 70.9°F21.6°C 70.6°F21.4°C 99% Calm Calm -- 29.91 in1012.9 mb - 0.00 in0.0 mm 0.01 in0.3 mm
08:40 AM 70.8°F21.6°C 70.5°F21.4°C 99% Calm Calm -- 29.91 in1012.9 mb - 0.00 in0.0 mm 0.01 in0.3 mm
08:35 AM 70.8°F21.6°C 70.5°F21.4°C 99% Calm Calm -- 29.91 in1012.9 mb - 0.00 in0.0 mm 0.01 in0.3 mm
08:30 AM 70.6°F21.4°C 70.3°F21.3°C 99% Calm Calm -- 29.91 in1012.9 mb - 0.00 in0.0 mm 0.01 in0.3 mm
08:25 AM 70.6°F21.4°C 70.3°F21.3°C 99% Calm Calm -- 29.91 in1012.9 mb - 0.00 in0.0 mm 0.01 in0.3 mm
08:20 AM 70.6°F21.4°C 70.3°F21.3°C 99% Calm Calm -- 29.91 in1012.9 mb - 0.00 in0.0 mm 0.01 in0.3 mm
08:15 AM 70.5°F21.4°C 70.2°F21.2°C 99% Calm Calm -- 29.91 in1012.9 mb - 0.00 in0.0 mm 0.01 in0.3 mm
08:10 AM 70.3°F21.3°C 70.0°F21.1°C 99% Calm Calm -- 29.91 in1012.9 mb - 0.00 in0.0 mm 0.01 in0.3 mm
08:00 AM 70.1°F21.2°C 69.9°F21.1°C 99% Calm Calm -- 29.91 in1012.9 mb - 0.00 in0.0 mm 0.01 in0.3 mm
07:55 AM 70.3°F21.3°C 70.0°F21.1°C 99% Calm Calm -- 29.91 in1012.9 mb - 0.00 in0.0 mm 0.01 in0.3 mm
07:50 AM 70.3°F21.3°C 70.0°F21.1°C 99% Calm Calm -- 29.91 in1012.9 mb - 0.00 in0.0 mm 0.01 in0.3 mm
07:45 AM 70.3°F21.3°C 70.0°F21.1°C 99% Calm Calm -- 29.90 in1012.5 mb - 0.00 in0.0 mm 0.01 in0.3 mm
07:40 AM 70.3°F21.3°C 70.0°F21.1°C 99% Calm Calm -- 29.90 in1012.5 mb - 0.00 in0.0 mm 0.01 in0.3 mm
07:35 AM 70.1°F21.2°C 69.8°F21.0°C 99% Calm Calm -- 29.90 in1012.5 mb - 0.00 in0.0 mm 0.01 in0.3 mm
07:30 AM 70.1°F21.2°C 69.8°F21.0°C 99% Calm Calm -- 29.90 in1012.5 mb - 0.00 in0.0 mm 0.01 in0.3 mm
07:25 AM 70.1°F21.2°C 69.8°F21.0°C 99% Calm Calm -- 29.90 in1012.5 mb - 0.00 in0.0 mm 0.01 in0.3 mm
07:20 AM 70.1°F21.2°C 69.8°F21.0°C 99% Calm Calm -- 29.90 in1012.5 mb - 0.00 in0.0 mm 0.01 in0.3 mm
07:15 AM 70.1°F21.2°C 69.8°F21.0°C 99% Calm Calm -- 29.90 in1012.5 mb - 0.01 in0.3 mm 0.01 in0.3 mm
07:10 AM 70.1°F21.2°C 69.8°F21.0°C 99% Calm Calm -- 29.90 in1012.5 mb - 0.01 in0.3 mm 0.01 in0.3 mm
07:00 AM 70.1°F21.2°C 69.8°F21.0°C 99% Calm Calm -- 29.89 in1012.2 mb - 0.01 in0.3 mm 0.01 in0.3 mm
06:55 AM 70.2°F21.2°C 69.9°F21.1°C 99% Calm Calm -- 29.89 in1012.2 mb - 0.01 in0.3 mm 0.01 in0.3 mm
06:50 AM 70.1°F21.2°C 69.9°F21.1°C 99% Calm Calm -- 29.89 in1012.2 mb - 0.01 in0.3 mm 0.01 in0.3 mm
06:45 AM 70.1°F21.2°C 69.8°F21.0°C 99% Calm Calm -- 29.89 in1012.2 mb - 0.01 in0.3 mm 0.01 in0.3 mm
06:40 AM 70.2°F21.2°C 69.9°F21.1°C 99% Calm Calm -- 29.89 in1012.2 mb - 0.01 in0.3 mm 0.01 in0.3 mm
06:35 AM 70.3°F21.3°C 70.0°F21.1°C 99% Calm Calm -- 29.89 in1012.2 mb - 0.01 in0.3 mm 0.01 in0.3 mm
06:30 AM 70.2°F21.2°C 69.9°F21.1°C 99% Calm Calm -- 29.89 in1012.2 mb - 0.01 in0.3 mm 0.01 in0.3 mm
06:25 AM 70.1°F21.2°C 69.8°F21.0°C 99% Calm Calm -- 29.89 in1012.2 mb - 0.01 in0.3 mm 0.01 in0.3 mm
06:20 AM 70.0°F21.1°C 69.8°F21.0°C 99% Calm Calm -- 29.89 in1012.2 mb - 0.01 in0.3 mm 0.01 in0.3 mm
06:15 AM 70.0°F21.1°C 69.7°F20.9°C 99% Calm Calm -- 29.89 in1012.2 mb - 0.01 in0.3 mm 0.01 in0.3 mm
06:10 AM 70.1°F21.2°C 69.8°F21.0°C 99% Calm Calm -- 29.89 in1012.2 mb - 0.00 in0.0 mm 0.00 in0.0 mm
06:00 AM 70.1°F21.2°C 69.8°F21.0°C 99% Calm Calm -- 29.88 in1011.9 mb - 0.00 in0.0 mm 0.00 in0.0 mm
05:55 AM 70.0°F21.1°C 69.7°F20.9°C 99% Calm Calm -- 29.88 in1011.9 mb - 0.00 in0.0 mm 0.00 in0.0 mm
05:50 AM 70.0°F21.1°C 69.7°F20.9°C 99% Calm Calm -- 29.88 in1011.9 mb - 0.00 in0.0 mm 0.00 in0.0 mm
05:45 AM 70.1°F21.2°C 69.8°F21.0°C 99% Calm Calm -- 29.88 in1011.9 mb - 0.00 in0.0 mm 0.00 in0.0 mm
05:40 AM 70.0°F21.1°C 69.7°F20.9°C 99% Calm Calm -- 29.88 in1011.9 mb - 0.00 in0.0 mm 0.00 in0.0 mm
05:35 AM 70.0°F21.1°C 69.7°F20.9°C 99% Calm Calm -- 29.88 in1011.9 mb - 0.00 in0.0 mm 0.00 in0.0 mm
05:30 AM 70.0°F21.1°C 69.7°F20.9°C 99% Calm Calm -- 29.88 in1011.9 mb - 0.00 in0.0 mm 0.00 in0.0 mm
05:25 AM 70.0°F21.1°C 69.7°F20.9°C 99% Calm Calm -- 29.88 in1011.9 mb - 0.00 in0.0 mm 0.00 in0.0 mm
05:20 AM 69.9°F21.1°C 69.6°F20.9°C 99% Calm Calm -- 29.88 in1011.9 mb - 0.00 in0.0 mm 0.00 in0.0 mm
05:15 AM 69.9°F21.1°C 69.6°F20.9°C 99% Calm Calm -- 29.88 in1011.9 mb - 0.00 in0.0 mm 0.00 in0.0 mm
05:10 AM 69.9°F21.1°C 69.6°F20.9°C 99% Calm Calm -- 29.88 in1011.9 mb - 0.00 in0.0 mm 0.00 in0.0 mm
05:00 AM 70.0°F21.1°C 69.7°F20.9°C 99% Calm Calm -- 29.88 in1011.9 mb - 0.00 in0.0 mm 0.00 in0.0 mm
04:55 AM 69.9°F21.1°C 69.6°F20.9°C 99% Calm Calm -- 29.88 in1011.9 mb - 0.00 in0.0 mm 0.00 in0.0 mm
04:50 AM 69.9°F21.1°C 69.6°F20.9°C 99% Calm Calm -- 29.88 in1011.9 mb - 0.00 in0.0 mm 0.00 in0.0 mm
04:45 AM 69.9°F21.1°C 69.6°F20.9°C 99% Calm Calm -- 29.88 in1011.9 mb - 0.00 in0.0 mm 0.00 in0.0 mm
04:40 AM 69.9°F21.1°C 69.6°F20.9°C 99% Calm Calm -- 29.88 in1011.9 mb - 0.00 in0.0 mm 0.00 in0.0 mm
04:35 AM 69.9°F21.1°C 69.6°F20.9°C 99% Calm Calm -- 29.88 in1011.9 mb - 0.00 in0.0 mm 0.00 in0.0 mm
04:30 AM 69.8°F21.0°C 69.5°F20.8°C 99% Calm Calm -- 29.88 in1011.9 mb - 0.00 in0.0 mm 0.00 in0.0 mm
04:25 AM 69.8°F21.0°C 69.5°F20.8°C 99% Calm Calm -- 29.88 in1011.9 mb - 0.00 in0.0 mm 0.00 in0.0 mm
04:20 AM 69.8°F21.0°C 69.5°F20.8°C 99% Calm Calm -- 29.88 in1011.9 mb - 0.00 in0.0 mm 0.00 in0.0 mm
04:15 AM 69.8°F21.0°C 69.5°F20.8°C 99% Calm Calm -- 29.88 in1011.9 mb - 0.00 in0.0 mm 0.00 in0.0 mm
04:10 AM 69.8°F21.0°C 69.5°F20.8°C 99% Calm Calm -- 29.88 in1011.9 mb - 0.00 in0.0 mm 0.00 in0.0 mm
04:00 AM 69.8°F21.0°C 69.5°F20.8°C 99% Calm Calm -- 29.88 in1011.9 mb - 0.00 in0.0 mm 0.00 in0.0 mm
03:55 AM 69.8°F21.0°C 69.5°F20.8°C 99% Calm Calm -- 29.88 in1011.9 mb - 0.00 in0.0 mm 0.00 in0.0 mm
03:50 AM 69.8°F21.0°C 69.5°F20.8°C 99% Calm Calm -- 29.88 in1011.9 mb - 0.00 in0.0 mm 0.00 in0.0 mm
03:45 AM 69.9°F21.1°C 69.6°F20.9°C 99% Calm Calm -- 29.88 in1011.9 mb - 0.00 in0.0 mm 0.00 in0.0 mm
03:40 AM 69.9°F21.1°C 69.6°F20.9°C 99% Calm Calm 1.2 mph1.9 kmh 29.88 in1011.9 mb - 0.00 in0.0 mm 0.00 in0.0 mm
03:35 AM 69.8°F21.0°C 69.5°F20.8°C 99% Calm Calm -- 29.88 in1011.9 mb - 0.00 in0.0 mm 0.00 in0.0 mm
03:30 AM 69.8°F21.0°C 69.5°F20.8°C 99% Calm Calm -- 29.89 in1012.2 mb - 0.00 in0.0 mm 0.00 in0.0 mm
03:25 AM 69.7°F20.9°C 69.4°F20.8°C 99% Calm Calm -- 29.89 in1012.2 mb - 0.00 in0.0 mm 0.00 in0.0 mm
03:20 AM 69.8°F21.0°C 69.5°F20.8°C 99% Calm Calm -- 29.88 in1011.9 mb - 0.00 in0.0 mm 0.00 in0.0 mm
03:15 AM 69.8°F21.0°C 69.5°F20.8°C 99% Calm Calm -- 29.89 in1012.2 mb - 0.00 in0.0 mm 0.00 in0.0 mm
03:10 AM 69.8°F21.0°C 69.5°F20.8°C 99% Calm Calm -- 29.89 in1012.2 mb - 0.00 in0.0 mm 0.00 in0.0 mm
03:00 AM 69.8°F21.0°C 69.5°F20.8°C 99% Calm Calm -- 29.89 in1012.2 mb - 0.00 in0.0 mm 0.00 in0.0 mm
02:55 AM 69.8°F21.0°C 69.5°F20.8°C 99% Calm Calm 1.2 mph1.9 kmh 29.89 in1012.2 mb - 0.00 in0.0 mm 0.00 in0.0 mm
02:50 AM 69.8°F21.0°C 69.5°F20.8°C 99% Calm Calm 1.2 mph1.9 kmh 29.89 in1012.2 mb - 0.00 in0.0 mm 0.00 in0.0 mm
02:45 AM 69.8°F21.0°C 69.5°F20.8°C 99% Calm Calm 3.5 mph5.6 kmh 29.89 in1012.2 mb - 0.00 in0.0 mm 0.00 in0.0 mm
02:40 AM 69.8°F21.0°C 69.5°F20.8°C 99% Calm Calm 1.2 mph1.9 kmh 29.89 in1012.2 mb - 0.00 in0.0 mm 0.00 in0.0 mm
02:35 AM 69.7°F20.9°C 69.4°F20.8°C 99% Calm Calm 1.2 mph1.9 kmh 29.89 in1012.2 mb - 0.00 in0.0 mm 0.00 in0.0 mm
02:30 AM 69.6°F20.9°C 69.3°F20.7°C 99% Calm Calm -- 29.89 in1012.2 mb - 0.00 in0.0 mm 0.00 in0.0 mm
02:25 AM 69.7°F20.9°C 69.4°F20.8°C 99% Calm Calm 1.2 mph1.9 kmh 29.89 in1012.2 mb - 0.00 in0.0 mm 0.00 in0.0 mm
02:20 AM 69.7°F20.9°C 69.4°F20.8°C 99% Calm Calm -- 29.89 in1012.2 mb - 0.00 in0.0 mm 0.00 in0.0 mm
02:15 AM 69.6°F20.9°C 69.3°F20.7°C 99% Calm Calm -- 29.89 in1012.2 mb - 0.00 in0.0 mm 0.00 in0.0 mm
02:10 AM 69.6°F20.9°C 69.3°F20.7°C 99% Calm Calm 1.2 mph1.9 kmh 29.89 in1012.2 mb - 0.00 in0.0 mm 0.00 in0.0 mm
02:00 AM 69.7°F20.9°C 69.4°F20.8°C 99% Calm Calm 1.2 mph1.9 kmh 29.89 in1012.2 mb - 0.00 in0.0 mm 0.00 in0.0 mm
01:55 AM 69.6°F20.9°C 69.3°F20.7°C 99% Calm Calm -- 29.89 in1012.2 mb - 0.00 in0.0 mm 0.00 in0.0 mm
01:50 AM 69.6°F20.9°C 69.3°F20.7°C 99% Calm Calm 2.3 mph3.7 kmh 29.89 in1012.2 mb - 0.00 in0.0 mm 0.00 in0.0 mm
01:45 AM 69.7°F20.9°C 69.4°F20.8°C 99% Calm Calm -- 29.89 in1012.2 mb - 0.00 in0.0 mm 0.00 in0.0 mm
01:40 AM 69.7°F20.9°C 69.4°F20.8°C 99% Calm Calm -- 29.89 in1012.2 mb - 0.00 in0.0 mm 0.00 in0.0 mm
01:35 AM 69.6°F20.9°C 69.3°F20.7°C 99% Calm Calm -- 29.89 in1012.2 mb - 0.00 in0.0 mm 0.00 in0.0 mm
01:30 AM 69.6°F20.9°C 69.3°F20.7°C 99% Calm Calm -- 29.89 in1012.2 mb - 0.00 in0.0 mm 0.00 in0.0 mm
01:25 AM 69.6°F20.9°C 69.3°F20.7°C 99% Calm Calm -- 29.89 in1012.2 mb - 0.00 in0.0 mm 0.00 in0.0 mm
01:20 AM 69.7°F20.9°C 69.4°F20.8°C 99% Calm Calm -- 29.89 in1012.2 mb - 0.00 in0.0 mm 0.00 in0.0 mm
01:15 AM 69.8°F21.0°C 69.5°F20.8°C 99% Calm Calm -- 29.89 in1012.2 mb - 0.00 in0.0 mm 0.00 in0.0 mm
01:10 AM 69.8°F21.0°C 69.5°F20.8°C 99% Calm Calm -- 29.89 in1012.2 mb - 0.00 in0.0 mm 0.00 in0.0 mm
01:00 AM 69.8°F21.0°C 69.5°F20.8°C 99% Calm Calm -- 29.89 in1012.2 mb - 0.00 in0.0 mm 0.00 in0.0 mm
12:55 AM 69.8°F21.0°C 69.5°F20.8°C 99% Calm Calm -- 29.89 in1012.2 mb - 0.00 in0.0 mm 0.00 in0.0 mm
12:50 AM 69.7°F20.9°C 69.4°F20.8°C 99% Calm Calm 1.2 mph1.9 kmh 29.89 in1012.2 mb - 0.00 in0.0 mm 0.00 in0.0 mm
12:45 AM 69.7°F20.9°C 69.4°F20.8°C 99% Calm Calm 1.2 mph1.9 kmh 29.90 in1012.5 mb - 0.00 in0.0 mm 0.00 in0.0 mm
12:40 AM 69.8°F21.0°C 69.5°F20.8°C 99% Calm Calm 1.2 mph1.9 kmh 29.89 in1012.2 mb - 0.00 in0.0 mm 0.00 in0.0 mm
12:35 AM 69.8°F21.0°C 69.5°F20.8°C 99% Calm Calm -- 29.90 in1012.5 mb - 0.00 in0.0 mm 0.00 in0.0 mm
12:30 AM 69.8°F21.0°C 69.5°F20.8°C 99% Calm Calm -- 29.90 in1012.5 mb - 0.00 in0.0 mm 0.00 in0.0 mm
12:25 AM 69.8°F21.0°C 69.5°F20.8°C 99% Calm Calm 2.3 mph3.7 kmh 29.90 in1012.5 mb - 0.00 in0.0 mm 0.00 in0.0 mm
12:20 AM 69.7°F20.9°C 69.5°F20.8°C 99% Calm Calm -- 29.90 in1012.5 mb - 0.00 in0.0 mm 0.00 in0.0 mm
12:15 AM 69.8°F21.0°C 69.5°F20.8°C 99% Calm Calm -- 29.90 in1012.5 mb - 0.00 in0.0 mm 0.00 in0.0 mm
12:10 AM 69.7°F20.9°C 69.4°F20.8°C 99% Calm Calm -- 29.90 in1012.5 mb - 0.00 in0.0 mm 0.00 in0.0 mm
12:00 AM 69.8°F21.0°C 69.5°F20.8°C 99% Calm Calm 1.2 mph1.9 kmh 29.91 in1012.9 mb - 0.00 in0.0 mm 0.00 in0.0 mm